sensor_id;sensor_type;location;lat;lon;timestamp;temperature;humidity
58517;DHT22;44308;50.810;0.284;2023-04-24T00:01:53;8.50;99.90
58517;DHT22;44308;50.810;0.284;2023-04-24T00:04:20;8.50;99.90
58517;DHT22;44308;50.810;0.284;2023-04-24T00:06:46;8.50;99.90
58517;DHT22;44308;50.810;0.284;2023-04-24T00:09:14;8.50;99.90
58517;DHT22;44308;50.810;0.284;2023-04-24T00:11:41;8.60;99.90
58517;DHT22;44308;50.810;0.284;2023-04-24T00:14:07;8.60;99.90
58517;DHT22;44308;50.810;0.284;2023-04-24T00:16:32;8.50;99.90
58517;DHT22;44308;50.810;0.284;2023-04-24T00:18:58;8.60;99.90
58517;DHT22;44308;50.810;0.284;2023-04-24T00:21:24;8.60;99.90
58517;DHT22;44308;50.810;0.284;2023-04-24T00:23:53;8.60;99.90
58517;DHT22;44308;50.810;0.284;2023-04-24T00:26:18;8.60;99.90
58517;DHT22;44308;50.810;0.284;2023-04-24T00:28:44;8.50;99.90
58517;DHT22;44308;50.810;0.284;2023-04-24T00:31:10;8.50;99.90
58517;DHT22;44308;50.810;0.284;2023-04-24T00:33:37;8.50;99.90
58517;DHT22;44308;50.810;0.284;2023-04-24T00:36:02;8.40;99.90
58517;DHT22;44308;50.810;0.284;2023-04-24T00:38:28;8.50;99.90
58517;DHT22;44308;50.810;0.284;2023-04-24T00:40:54;8.50;99.90
58517;DHT22;44308;50.810;0.284;2023-04-24T00:43:22;8.40;99.90
58517;DHT22;44308;50.810;0.284;2023-04-24T00:45:48;8.40;99.90
58517;DHT22;44308;50.810;0.284;2023-04-24T00:48:14;8.30;99.90
58517;DHT22;44308;50.810;0.284;2023-04-24T00:50:40;8.30;99.90
58517;DHT22;44308;50.810;0.284;2023-04-24T00:53:07;8.20;99.90
58517;DHT22;44308;50.810;0.284;2023-04-24T00:55:33;8.20;99.90
58517;DHT22;44308;50.810;0.284;2023-04-24T00:57:59;8.30;99.90
58517;DHT22;44308;50.810;0.284;2023-04-24T01:00:25;8.30;99.90
58517;DHT22;44308;50.810;0.284;2023-04-24T01:02:52;8.30;99.90
58517;DHT22;44308;50.810;0.284;2023-04-24T01:05:18;8.40;99.90
58517;DHT22;44308;50.810;0.284;2023-04-24T01:07:45;8.40;99.90
58517;DHT22;44308;50.810;0.284;2023-04-24T01:10:14;8.40;99.90
58517;DHT22;44308;50.810;0.284;2023-04-24T01:12:40;8.30;99.90
58517;DHT22;44308;50.810;0.284;2023-04-24T01:15:07;8.30;99.90
58517;DHT22;44308;50.810;0.284;2023-04-24T01:17:33;8.20;99.90
58517;DHT22;44308;50.810;0.284;2023-04-24T01:19:59;8.20;99.90
58517;DHT22;44308;50.810;0.284;2023-04-24T01:22:26;8.10;99.90
58517;DHT22;44308;50.810;0.284;2023-04-24T01:24:53;8.10;99.90
58517;DHT22;44308;50.810;0.284;2023-04-24T01:27:19;8.00;99.90
58517;DHT22;44308;50.810;0.284;2023-04-24T01:29:45;8.00;99.90
58517;DHT22;44308;50.810;0.284;2023-04-24T01:32:14;7.90;99.90
58517;DHT22;44308;50.810;0.284;2023-04-24T01:34:40;8.00;99.90
58517;DHT22;44308;50.810;0.284;2023-04-24T01:37:06;7.90;99.90
58517;DHT22;44308;50.810;0.284;2023-04-24T01:39:32;7.90;99.90
58517;DHT22;44308;50.810;0.284;2023-04-24T01:41:59;7.80;99.90
58517;DHT22;44308;50.810;0.284;2023-04-24T01:44:26;7.80;99.90
58517;DHT22;44308;50.810;0.284;2023-04-24T01:46:52;7.80;99.90
58517;DHT22;44308;50.810;0.284;2023-04-24T01:49:19;7.80;99.90
58517;DHT22;44308;50.810;0.284;2023-04-24T01:51:46;7.70;99.90
58517;DHT22;44308;50.810;0.284;2023-04-24T01:54:12;7.70;99.90
58517;DHT22;44308;50.810;0.284;2023-04-24T01:56:41;7.70;99.90
58517;DHT22;44308;50.810;0.284;2023-04-24T01:59:10;7.60;99.90
58517;DHT22;44308;50.810;0.284;2023-04-24T02:01:37;7.60;99.90
58517;DHT22;44308;50.810;0.284;2023-04-24T02:04:05;7.60;99.90
58517;DHT22;44308;50.810;0.284;2023-04-24T02:06:31;7.50;99.90
58517;DHT22;44308;50.810;0.284;2023-04-24T02:09:00;7.50;99.90
58517;DHT22;44308;50.810;0.284;2023-04-24T02:11:26;7.50;99.90
58517;DHT22;44308;50.810;0.284;2023-04-24T02:14:12;7.50;99.90
58517;DHT22;44308;50.810;0.284;2023-04-24T02:16:39;7.40;99.90
58517;DHT22;44308;50.810;0.284;2023-04-24T02:19:05;7.40;99.90
58517;DHT22;44308;50.810;0.284;2023-04-24T02:21:30;7.40;99.90
58517;DHT22;44308;50.810;0.284;2023-04-24T02:23:56;7.30;99.90
58517;DHT22;44308;50.810;0.284;2023-04-24T02:26:22;7.30;99.90
58517;DHT22;44308;50.810;0.284;2023-04-24T02:28:48;7.30;99.90
58517;DHT22;44308;50.810;0.284;2023-04-24T02:31:14;7.20;99.90
58517;DHT22;44308;50.810;0.284;2023-04-24T02:33:40;7.20;99.90
58517;DHT22;44308;50.810;0.284;2023-04-24T02:36:06;7.20;99.90
58517;DHT22;44308;50.810;0.284;2023-04-24T02:38:32;7.20;99.90
58517;DHT22;44308;50.810;0.284;2023-04-24T02:40:58;7.20;99.90
58517;DHT22;44308;50.810;0.284;2023-04-24T02:43:23;7.20;99.90
58517;DHT22;44308;50.810;0.284;2023-04-24T02:45:49;7.20;99.90
58517;DHT22;44308;50.810;0.284;2023-04-24T02:48:15;7.20;99.90
58517;DHT22;44308;50.810;0.284;2023-04-24T02:50:42;7.20;99.90
58517;DHT22;44308;50.810;0.284;2023-04-24T02:53:09;7.30;99.90
58517;DHT22;44308;50.810;0.284;2023-04-24T02:55:34;7.40;99.90
58517;DHT22;44308;50.810;0.284;2023-04-24T02:58:01;7.50;99.90
58517;DHT22;44308;50.810;0.284;2023-04-24T03:00:26;7.50;99.90
58517;DHT22;44308;50.810;0.284;2023-04-24T03:02:54;7.50;99.90
58517;DHT22;44308;50.810;0.284;2023-04-24T03:05:20;7.50;99.90
58517;DHT22;44308;50.810;0.284;2023-04-24T03:07:46;7.50;99.90
58517;DHT22;44308;50.810;0.284;2023-04-24T03:10:11;7.40;99.90
58517;DHT22;44308;50.810;0.284;2023-04-24T03:12:38;7.40;99.90
58517;DHT22;44308;50.810;0.284;2023-04-24T03:15:03;7.40;99.90
58517;DHT22;44308;50.810;0.284;2023-04-24T03:17:29;7.40;99.90
58517;DHT22;44308;50.810;0.284;2023-04-24T03:19:55;7.30;99.90
58517;DHT22;44308;50.810;0.284;2023-04-24T03:22:22;7.30;99.90
58517;DHT22;44308;50.810;0.284;2023-04-24T03:24:48;7.40;99.90
58517;DHT22;44308;50.810;0.284;2023-04-24T03:27:13;7.40;99.90
58517;DHT22;44308;50.810;0.284;2023-04-24T03:29:39;7.50;99.90
58517;DHT22;44308;50.810;0.284;2023-04-24T03:32:06;7.50;99.90
58517;DHT22;44308;50.810;0.284;2023-04-24T03:34:31;7.50;99.90
58517;DHT22;44308;50.810;0.284;2023-04-24T03:36:57;7.50;99.90
58517;DHT22;44308;50.810;0.284;2023-04-24T03:39:23;7.60;99.90
58517;DHT22;44308;50.810;0.284;2023-04-24T03:41:50;7.60;99.90
58517;DHT22;44308;50.810;0.284;2023-04-24T03:44:17;7.60;99.90
58517;DHT22;44308;50.810;0.284;2023-04-24T03:46:43;7.50;99.90
58517;DHT22;44308;50.810;0.284;2023-04-24T03:49:08;7.50;99.90
58517;DHT22;44308;50.810;0.284;2023-04-24T03:51:34;7.50;99.90
58517;DHT22;44308;50.810;0.284;2023-04-24T03:54:01;7.60;99.90
58517;DHT22;44308;50.810;0.284;2023-04-24T03:56:27;7.70;99.90
58517;DHT22;44308;50.810;0.284;2023-04-24T03:58:53;7.80;99.90
58517;DHT22;44308;50.810;0.284;2023-04-24T04:01:18;7.80;99.90
58517;DHT22;44308;50.810;0.284;2023-04-24T04:03:47;7.80;99.90
58517;DHT22;44308;50.810;0.284;2023-04-24T04:06:13;7.90;99.90
58517;DHT22;44308;50.810;0.284;2023-04-24T04:08:38;7.90;99.90
58517;DHT22;44308;50.810;0.284;2023-04-24T04:11:04;7.80;99.90
58517;DHT22;44308;50.810;0.284;2023-04-24T04:13:31;7.80;99.90
58517;DHT22;44308;50.810;0.284;2023-04-24T04:15:57;7.70;99.90
58517;DHT22;44308;50.810;0.284;2023-04-24T04:18:22;7.60;99.90
58517;DHT22;44308;50.810;0.284;2023-04-24T04:20:48;7.60;99.90
58517;DHT22;44308;50.810;0.284;2023-04-24T04:23:14;7.60;99.90
58517;DHT22;44308;50.810;0.284;2023-04-24T04:25:39;7.60;99.90
58517;DHT22;44308;50.810;0.284;2023-04-24T04:28:05;7.50;99.90
58517;DHT22;44308;50.810;0.284;2023-04-24T04:30:31;7.50;99.90
58517;DHT22;44308;50.810;0.284;2023-04-24T04:33:17;7.50;99.90
58517;DHT22;44308;50.810;0.284;2023-04-24T04:35:43;7.60;99.90
58517;DHT22;44308;50.810;0.284;2023-04-24T04:38:09;7.60;99.90
58517;DHT22;44308;50.810;0.284;2023-04-24T04:40:36;7.60;99.90
58517;DHT22;44308;50.810;0.284;2023-04-24T04:43:03;7.60;99.90
58517;DHT22;44308;50.810;0.284;2023-04-24T04:45:29;7.60;99.90
58517;DHT22;44308;50.810;0.284;2023-04-24T04:47:56;7.60;99.90
58517;DHT22;44308;50.810;0.284;2023-04-24T04:50:22;7.50;99.90
58517;DHT22;44308;50.810;0.284;2023-04-24T04:52:48;7.60;99.90
58517;DHT22;44308;50.810;0.284;2023-04-24T04:55:14;7.60;99.90
58517;DHT22;44308;50.810;0.284;2023-04-24T04:57:40;7.50;99.90
58517;DHT22;44308;50.810;0.284;2023-04-24T05:00:06;7.60;99.90
58517;DHT22;44308;50.810;0.284;2023-04-24T05:02:33;7.60;99.90
58517;DHT22;44308;50.810;0.284;2023-04-24T05:04:58;7.60;99.90
58517;DHT22;44308;50.810;0.284;2023-04-24T05:07:24;7.60;99.90
58517;DHT22;44308;50.810;0.284;2023-04-24T05:09:50;7.60;99.90
58517;DHT22;44308;50.810;0.284;2023-04-24T05:12:17;7.60;99.90
58517;DHT22;44308;50.810;0.284;2023-04-24T05:14:43;7.60;99.90
58517;DHT22;44308;50.810;0.284;2023-04-24T05:17:09;7.70;99.90
58517;DHT22;44308;50.810;0.284;2023-04-24T05:19:35;7.60;99.90
58517;DHT22;44308;50.810;0.284;2023-04-24T05:22:03;7.70;99.90
58517;DHT22;44308;50.810;0.284;2023-04-24T05:24:30;7.60;99.90
58517;DHT22;44308;50.810;0.284;2023-04-24T05:26:56;7.70;99.90
58517;DHT22;44308;50.810;0.284;2023-04-24T05:29:22;7.70;99.90
58517;DHT22;44308;50.810;0.284;2023-04-24T05:31:48;7.70;99.90
58517;DHT22;44308;50.810;0.284;2023-04-24T05:34:15;7.80;99.90
58517;DHT22;44308;50.810;0.284;2023-04-24T05:36:42;7.80;99.90
58517;DHT22;44308;50.810;0.284;2023-04-24T05:39:10;8.00;99.90
58517;DHT22;44308;50.810;0.284;2023-04-24T05:41:35;8.10;99.90
58517;DHT22;44308;50.810;0.284;2023-04-24T05:44:01;8.20;99.90
58517;DHT22;44308;50.810;0.284;2023-04-24T05:46:27;8.30;99.90
58517;DHT22;44308;50.810;0.284;2023-04-24T05:48:52;8.50;99.90
58517;DHT22;44308;50.810;0.284;2023-04-24T05:51:18;8.60;99.90
58517;DHT22;44308;50.810;0.284;2023-04-24T05:53:44;8.80;99.90
58517;DHT22;44308;50.810;0.284;2023-04-24T05:56:09;8.90;99.90
58517;DHT22;44308;50.810;0.284;2023-04-24T05:58:35;9.10;99.90
58517;DHT22;44308;50.810;0.284;2023-04-24T06:01:02;9.10;99.90
58517;DHT22;44308;50.810;0.284;2023-04-24T06:03:29;9.20;99.90
58517;DHT22;44308;50.810;0.284;2023-04-24T06:05:55;9.20;99.90
58517;DHT22;44308;50.810;0.284;2023-04-24T06:08:21;9.20;99.90
58517;DHT22;44308;50.810;0.284;2023-04-24T06:11:09;9.20;99.90
58517;DHT22;44308;50.810;0.284;2023-04-24T06:13:35;9.20;99.90
58517;DHT22;44308;50.810;0.284;2023-04-24T06:16:01;9.20;99.90
58517;DHT22;44308;50.810;0.284;2023-04-24T06:18:27;9.20;99.90
58517;DHT22;44308;50.810;0.284;2023-04-24T06:20:54;9.20;99.90
58517;DHT22;44308;50.810;0.284;2023-04-24T06:23:20;9.20;99.90
58517;DHT22;44308;50.810;0.284;2023-04-24T06:25:46;9.30;99.90
58517;DHT22;44308;50.810;0.284;2023-04-24T06:28:12;9.30;99.90
58517;DHT22;44308;50.810;0.284;2023-04-24T06:30:38;9.50;99.90
58517;DHT22;44308;50.810;0.284;2023-04-24T06:33:22;10.00;99.90
58517;DHT22;44308;50.810;0.284;2023-04-24T06:35:48;11.10;99.90
58517;DHT22;44308;50.810;0.284;2023-04-24T06:38:14;11.70;99.90
58517;DHT22;44308;50.810;0.284;2023-04-24T06:40:41;12.60;99.90
58517;DHT22;44308;50.810;0.284;2023-04-24T06:43:11;13.20;99.90
58517;DHT22;44308;50.810;0.284;2023-04-24T06:45:38;13.50;99.90
58517;DHT22;44308;50.810;0.284;2023-04-24T06:48:05;13.90;99.90
58517;DHT22;44308;50.810;0.284;2023-04-24T06:50:30;14.10;99.90
58517;DHT22;44308;50.810;0.284;2023-04-24T06:52:56;14.40;99.90
58517;DHT22;44308;50.810;0.284;2023-04-24T06:55:22;14.40;99.90
58517;DHT22;44308;50.810;0.284;2023-04-24T06:57:50;14.60;99.90
58517;DHT22;44308;50.810;0.284;2023-04-24T07:00:16;14.50;99.90
58517;DHT22;44308;50.810;0.284;2023-04-24T07:02:42;14.60;99.90
58517;DHT22;44308;50.810;0.284;2023-04-24T07:05:08;14.70;99.90
58517;DHT22;44308;50.810;0.284;2023-04-24T07:07:33;15.10;99.90
58517;DHT22;44308;50.810;0.284;2023-04-24T07:10:00;15.40;99.90
58517;DHT22;44308;50.810;0.284;2023-04-24T07:12:27;15.40;99.90
58517;DHT22;44308;50.810;0.284;2023-04-24T07:14:52;15.60;99.90
58517;DHT22;44308;50.810;0.284;2023-04-24T07:17:18;15.50;99.90
58517;DHT22;44308;50.810;0.284;2023-04-24T07:19:44;15.50;99.90
58517;DHT22;44308;50.810;0.284;2023-04-24T07:22:09;15.50;99.90
58517;DHT22;44308;50.810;0.284;2023-04-24T07:24:38;15.50;99.90
58517;DHT22;44308;50.810;0.284;2023-04-24T07:27:04;15.70;99.90
58517;DHT22;44308;50.810;0.284;2023-04-24T07:29:30;15.80;99.90
58517;DHT22;44308;50.810;0.284;2023-04-24T07:31:55;15.90;99.90
58517;DHT22;44308;50.810;0.284;2023-04-24T07:34:22;16.20;99.90
58517;DHT22;44308;50.810;0.284;2023-04-24T07:36:47;16.30;99.90
58517;DHT22;44308;50.810;0.284;2023-04-24T07:39:13;16.30;99.90
58517;DHT22;44308;50.810;0.284;2023-04-24T07:41:39;16.50;99.90
58517;DHT22;44308;50.810;0.284;2023-04-24T07:44:25;16.60;99.90
58517;DHT22;44308;50.810;0.284;2023-04-24T07:46:51;16.60;99.90
58517;DHT22;44308;50.810;0.284;2023-04-24T07:49:17;16.80;99.90
58517;DHT22;44308;50.810;0.284;2023-04-24T07:51:42;17.10;99.90
58517;DHT22;44308;50.810;0.284;2023-04-24T07:54:09;17.00;99.90
58517;DHT22;44308;50.810;0.284;2023-04-24T07:56:35;17.20;99.90
58517;DHT22;44308;50.810;0.284;2023-04-24T07:59:04;17.30;99.90
58517;DHT22;44308;50.810;0.284;2023-04-24T08:01:30;17.40;99.90
58517;DHT22;44308;50.810;0.284;2023-04-24T08:03:57;17.30;99.90
58517;DHT22;44308;50.810;0.284;2023-04-24T08:06:23;17.40;99.90
58517;DHT22;44308;50.810;0.284;2023-04-24T08:08:49;17.70;99.90
58517;DHT22;44308;50.810;0.284;2023-04-24T08:11:15;17.80;99.90
58517;DHT22;44308;50.810;0.284;2023-04-24T08:13:41;18.00;99.90
58517;DHT22;44308;50.810;0.284;2023-04-24T08:16:07;18.30;99.90
58517;DHT22;44308;50.810;0.284;2023-04-24T08:18:32;18.30;99.90
58517;DHT22;44308;50.810;0.284;2023-04-24T08:20:58;17.90;99.90
58517;DHT22;44308;50.810;0.284;2023-04-24T08:23:27;17.30;99.90
58517;DHT22;44308;50.810;0.284;2023-04-24T08:25:58;17.30;99.90
58517;DHT22;44308;50.810;0.284;2023-04-24T08:28:24;17.80;99.90
58517;DHT22;44308;50.810;0.284;2023-04-24T08:30:50;18.30;99.90
58517;DHT22;44308;50.810;0.284;2023-04-24T08:33:24;18.60;99.90
58517;DHT22;44308;50.810;0.284;2023-04-24T08:35:50;18.40;99.90
58517;DHT22;44308;50.810;0.284;2023-04-24T08:38:16;18.20;99.90
58517;DHT22;44308;50.810;0.284;2023-04-24T08:40:42;18.50;99.90
58517;DHT22;44308;50.810;0.284;2023-04-24T08:43:09;18.50;99.90
58517;DHT22;44308;50.810;0.284;2023-04-24T08:45:35;18.50;99.90
58517;DHT22;44308;50.810;0.284;2023-04-24T08:48:02;18.60;99.90
58517;DHT22;44308;50.810;0.284;2023-04-24T08:50:29;18.60;99.90
58517;DHT22;44308;50.810;0.284;2023-04-24T08:52:58;19.20;99.90
58517;DHT22;44308;50.810;0.284;2023-04-24T08:55:25;18.40;99.90
58517;DHT22;44308;50.810;0.284;2023-04-24T08:57:52;17.30;99.90
58517;DHT22;44308;50.810;0.284;2023-04-24T09:00:22;17.30;99.90
58517;DHT22;44308;50.810;0.284;2023-04-24T09:03:07;17.60;99.90
58517;DHT22;44308;50.810;0.284;2023-04-24T09:05:33;17.90;99.90
58517;DHT22;44308;50.810;0.284;2023-04-24T09:07:59;18.40;99.90
58517;DHT22;44308;50.810;0.284;2023-04-24T09:10:27;18.50;99.90
58517;DHT22;44308;50.810;0.284;2023-04-24T09:12:57;18.70;99.90
58517;DHT22;44308;50.810;0.284;2023-04-24T09:15:24;19.30;99.90
58517;DHT22;44308;50.810;0.284;2023-04-24T09:17:50;19.50;99.90
58517;DHT22;44308;50.810;0.284;2023-04-24T09:20:16;19.90;99.90
58517;DHT22;44308;50.810;0.284;2023-04-24T09:22:43;20.20;99.90
58517;DHT22;44308;50.810;0.284;2023-04-24T09:25:10;20.20;99.90
58517;DHT22;44308;50.810;0.284;2023-04-24T09:27:42;20.30;99.90
58517;DHT22;44308;50.810;0.284;2023-04-24T09:30:12;20.60;99.90
58517;DHT22;44308;50.810;0.284;2023-04-24T09:32:39;20.50;99.90
58517;DHT22;44308;50.810;0.284;2023-04-24T09:35:15;19.80;99.90
58517;DHT22;44308;50.810;0.284;2023-04-24T09:37:43;19.00;99.90
58517;DHT22;44308;50.810;0.284;2023-04-24T09:40:17;17.90;99.90
58517;DHT22;44308;50.810;0.284;2023-04-24T09:42:45;17.10;99.90
58517;DHT22;44308;50.810;0.284;2023-04-24T09:45:11;16.50;99.90
58517;DHT22;44308;50.810;0.284;2023-04-24T09:47:38;16.30;99.90
58517;DHT22;44308;50.810;0.284;2023-04-24T09:50:15;16.00;99.90
58517;DHT22;44308;50.810;0.284;2023-04-24T09:52:44;15.70;99.90
58517;DHT22;44308;50.810;0.284;2023-04-24T09:55:18;15.80;99.90
58517;DHT22;44308;50.810;0.284;2023-04-24T09:57:55;15.50;99.90
58517;DHT22;44308;50.810;0.284;2023-04-24T10:00:25;15.70;99.90
58517;DHT22;44308;50.810;0.284;2023-04-24T10:02:56;15.80;99.90
58517;DHT22;44308;50.810;0.284;2023-04-24T10:05:24;15.50;99.90
58517;DHT22;44308;50.810;0.284;2023-04-24T10:07:50;15.00;99.90
58517;DHT22;44308;50.810;0.284;2023-04-24T10:10:16;14.80;99.90
58517;DHT22;44308;50.810;0.284;2023-04-24T10:12:43;15.10;99.90
58517;DHT22;44308;50.810;0.284;2023-04-24T10:15:10;15.10;99.90
58517;DHT22;44308;50.810;0.284;2023-04-24T10:17:38;15.10;99.90
58517;DHT22;44308;50.810;0.284;2023-04-24T10:20:05;15.20;99.90
58517;DHT22;44308;50.810;0.284;2023-04-24T10:22:32;15.10;99.90
58517;DHT22;44308;50.810;0.284;2023-04-24T10:24:59;15.10;99.90
58517;DHT22;44308;50.810;0.284;2023-04-24T10:27:26;15.70;99.90
58517;DHT22;44308;50.810;0.284;2023-04-24T10:29:53;16.30;99.90
58517;DHT22;44308;50.810;0.284;2023-04-24T10:32:19;16.40;99.90
58517;DHT22;44308;50.810;0.284;2023-04-24T10:34:45;16.80;99.90
58517;DHT22;44308;50.810;0.284;2023-04-24T10:37:10;17.00;99.90
58517;DHT22;44308;50.810;0.284;2023-04-24T10:39:36;17.30;99.90
58517;DHT22;44308;50.810;0.284;2023-04-24T10:42:14;18.00;99.90
58517;DHT22;44308;50.810;0.284;2023-04-24T10:44:41;18.10;99.90
58517;DHT22;44308;50.810;0.284;2023-04-24T10:47:13;17.70;99.90
58517;DHT22;44308;50.810;0.284;2023-04-24T10:49:39;17.20;99.90
58517;DHT22;44308;50.810;0.284;2023-04-24T10:52:05;16.80;99.90
58517;DHT22;44308;50.810;0.284;2023-04-24T10:59:49;15.60;99.90
58517;DHT22;44308;50.810;0.284;2023-04-24T11:02:15;15.50;99.90
58517;DHT22;44308;50.810;0.284;2023-04-24T11:04:41;15.40;99.90
58517;DHT22;44308;50.810;0.284;2023-04-24T11:07:12;16.00;99.90
58517;DHT22;44308;50.810;0.284;2023-04-24T11:09:38;16.60;99.90
58517;DHT22;44308;50.810;0.284;2023-04-24T11:12:07;17.00;99.90
58517;DHT22;44308;50.810;0.284;2023-04-24T11:15:02;16.50;99.90
58517;DHT22;44308;50.810;0.284;2023-04-24T11:17:38;16.10;99.90
58517;DHT22;44308;50.810;0.284;2023-04-24T11:20:10;15.40;99.90
58517;DHT22;44308;50.810;0.284;2023-04-24T11:22:38;15.20;99.90
58517;DHT22;44308;50.810;0.284;2023-04-24T11:25:06;15.30;99.90
58517;DHT22;44308;50.810;0.284;2023-04-24T11:27:41;15.20;99.90
58517;DHT22;44308;50.810;0.284;2023-04-24T11:30:08;14.60;99.90
58517;DHT22;44308;50.810;0.284;2023-04-24T11:37:36;13.60;99.90
58517;DHT22;44308;50.810;0.284;2023-04-24T11:40:04;13.60;99.90
58517;DHT22;44308;50.810;0.284;2023-04-24T11:42:37;13.40;99.90
58517;DHT22;44308;50.810;0.284;2023-04-24T11:45:08;13.60;99.90
58517;DHT22;44308;50.810;0.284;2023-04-24T11:47:35;13.70;99.90
58517;DHT22;44308;50.810;0.284;2023-04-24T11:50:01;13.90;99.90
58517;DHT22;44308;50.810;0.284;2023-04-24T11:52:30;14.00;99.90
58517;DHT22;44308;50.810;0.284;2023-04-24T11:54:56;14.50;99.90
58517;DHT22;44308;50.810;0.284;2023-04-24T11:57:24;14.80;99.90
58517;DHT22;44308;50.810;0.284;2023-04-24T11:59:52;15.00;99.90
58517;DHT22;44308;50.810;0.284;2023-04-24T12:02:25;14.90;99.90
58517;DHT22;44308;50.810;0.284;2023-04-24T12:04:52;14.90;99.90
58517;DHT22;44308;50.810;0.284;2023-04-24T12:07:18;15.10;99.90
58517;DHT22;44308;50.810;0.284;2023-04-24T12:09:48;15.00;99.90
58517;DHT22;44308;50.810;0.284;2023-04-24T12:12:16;15.40;99.90
58517;DHT22;44308;50.810;0.284;2023-04-24T12:14:43;15.30;99.90
58517;DHT22;44308;50.810;0.284;2023-04-24T12:17:09;14.90;99.90
58517;DHT22;44308;50.810;0.284;2023-04-24T12:19:35;14.70;99.90
58517;DHT22;44308;50.810;0.284;2023-04-24T12:22:02;14.90;99.90
58517;DHT22;44308;50.810;0.284;2023-04-24T12:24:29;15.50;99.90
58517;DHT22;44308;50.810;0.284;2023-04-24T12:26:57;15.70;99.90
58517;DHT22;44308;50.810;0.284;2023-04-24T12:29:23;15.40;99.90
58517;DHT22;44308;50.810;0.284;2023-04-24T12:31:52;15.10;99.90
58517;DHT22;44308;50.810;0.284;2023-04-24T12:34:23;15.00;99.90
58517;DHT22;44308;50.810;0.284;2023-04-24T12:36:50;15.00;99.90
58517;DHT22;44308;50.810;0.284;2023-04-24T12:39:17;15.10;99.90
58517;DHT22;44308;50.810;0.284;2023-04-24T12:41:56;14.90;99.90
58517;DHT22;44308;50.810;0.284;2023-04-24T12:44:30;14.90;99.90
58517;DHT22;44308;50.810;0.284;2023-04-24T12:46:57;15.10;99.90
58517;DHT22;44308;50.810;0.284;2023-04-24T12:49:23;15.30;99.90
58517;DHT22;44308;50.810;0.284;2023-04-24T12:51:48;15.30;99.90
58517;DHT22;44308;50.810;0.284;2023-04-24T12:54:14;15.30;99.90
58517;DHT22;44308;50.810;0.284;2023-04-24T12:56:40;15.00;99.90
58517;DHT22;44308;50.810;0.284;2023-04-24T12:59:06;15.40;99.90
58517;DHT22;44308;50.810;0.284;2023-04-24T13:01:31;15.90;99.90
58517;DHT22;44308;50.810;0.284;2023-04-24T13:03:57;16.20;99.90
58517;DHT22;44308;50.810;0.284;2023-04-24T13:06:23;16.70;99.90
58517;DHT22;44308;50.810;0.284;2023-04-24T13:08:49;16.70;99.90
58517;DHT22;44308;50.810;0.284;2023-04-24T13:11:15;16.70;99.90
58517;DHT22;44308;50.810;0.284;2023-04-24T13:13:41;16.80;99.90
58517;DHT22;44308;50.810;0.284;2023-04-24T13:16:07;16.40;99.90
58517;DHT22;44308;50.810;0.284;2023-04-24T13:18:32;15.70;99.90
58517;DHT22;44308;50.810;0.284;2023-04-24T13:20:58;15.70;99.90
58517;DHT22;44308;50.810;0.284;2023-04-24T13:23:25;15.50;99.90
58517;DHT22;44308;50.810;0.284;2023-04-24T13:25:50;15.60;99.90
58517;DHT22;44308;50.810;0.284;2023-04-24T13:28:16;15.50;99.90
58517;DHT22;44308;50.810;0.284;2023-04-24T13:30:42;15.40;99.90
58517;DHT22;44308;50.810;0.284;2023-04-24T13:33:07;15.30;99.90
58517;DHT22;44308;50.810;0.284;2023-04-24T13:35:33;15.00;99.90
58517;DHT22;44308;50.810;0.284;2023-04-24T13:37:59;15.20;99.90
58517;DHT22;44308;50.810;0.284;2023-04-24T13:40:27;15.40;99.90
58517;DHT22;44308;50.810;0.284;2023-04-24T13:42:53;15.50;99.90
58517;DHT22;44308;50.810;0.284;2023-04-24T13:45:18;15.50;99.90
58517;DHT22;44308;50.810;0.284;2023-04-24T13:47:44;15.50;99.90
58517;DHT22;44308;50.810;0.284;2023-04-24T13:50:10;15.30;99.90
58517;DHT22;44308;50.810;0.284;2023-04-24T13:52:37;15.20;99.90
58517;DHT22;44308;50.810;0.284;2023-04-24T13:55:03;15.10;99.90
58517;DHT22;44308;50.810;0.284;2023-04-24T13:57:29;15.60;99.90
58517;DHT22;44308;50.810;0.284;2023-04-24T13:59:56;15.90;99.90
58517;DHT22;44308;50.810;0.284;2023-04-24T14:02:26;16.20;99.90
58517;DHT22;44308;50.810;0.284;2023-04-24T14:04:52;15.90;99.90
58517;DHT22;44308;50.810;0.284;2023-04-24T14:07:18;15.60;99.90
58517;DHT22;44308;50.810;0.284;2023-04-24T14:09:43;15.40;99.90
58517;DHT22;44308;50.810;0.284;2023-04-24T14:12:09;15.20;99.90
58517;DHT22;44308;50.810;0.284;2023-04-24T14:14:35;15.00;99.90
58517;DHT22;44308;50.810;0.284;2023-04-24T14:17:01;14.90;99.90
58517;DHT22;44308;50.810;0.284;2023-04-24T14:19:26;15.00;99.90
58517;DHT22;44308;50.810;0.284;2023-04-24T14:21:52;15.20;99.90
58517;DHT22;44308;50.810;0.284;2023-04-24T14:24:18;15.40;99.90
58517;DHT22;44308;50.810;0.284;2023-04-24T14:26:44;15.30;99.90
58517;DHT22;44308;50.810;0.284;2023-04-24T14:29:10;15.20;99.90
58517;DHT22;44308;50.810;0.284;2023-04-24T14:31:35;15.00;99.90
58517;DHT22;44308;50.810;0.284;2023-04-24T14:34:03;14.90;99.90
58517;DHT22;44308;50.810;0.284;2023-04-24T14:36:29;15.00;99.90
58517;DHT22;44308;50.810;0.284;2023-04-24T14:38:55;15.10;99.90
58517;DHT22;44308;50.810;0.284;2023-04-24T14:41:21;15.00;99.90
58517;DHT22;44308;50.810;0.284;2023-04-24T14:43:47;15.20;99.90
58517;DHT22;44308;50.810;0.284;2023-04-24T14:46:12;15.30;99.90
58517;DHT22;44308;50.810;0.284;2023-04-24T14:48:38;15.30;99.90
58517;DHT22;44308;50.810;0.284;2023-04-24T14:51:04;15.40;99.90
58517;DHT22;44308;50.810;0.284;2023-04-24T14:53:29;15.00;99.90
58517;DHT22;44308;50.810;0.284;2023-04-24T14:55:55;14.70;99.90
58517;DHT22;44308;50.810;0.284;2023-04-24T14:58:21;14.50;99.90
58517;DHT22;44308;50.810;0.284;2023-04-24T15:00:47;14.50;99.90
58517;DHT22;44308;50.810;0.284;2023-04-24T15:03:15;14.60;99.90
58517;DHT22;44308;50.810;0.284;2023-04-24T15:05:41;14.70;99.90
58517;DHT22;44308;50.810;0.284;2023-04-24T15:08:07;15.20;99.90
58517;DHT22;44308;50.810;0.284;2023-04-24T15:10:33;15.60;99.90
58517;DHT22;44308;50.810;0.284;2023-04-24T15:12:58;16.00;99.90
58517;DHT22;44308;50.810;0.284;2023-04-24T15:15:24;16.00;99.90
58517;DHT22;44308;50.810;0.284;2023-04-24T15:17:50;15.70;99.90
58517;DHT22;44308;50.810;0.284;2023-04-24T15:20:16;15.80;99.90
58517;DHT22;44308;50.810;0.284;2023-04-24T15:22:41;16.00;99.90
58517;DHT22;44308;50.810;0.284;2023-04-24T15:25:07;15.80;99.90
58517;DHT22;44308;50.810;0.284;2023-04-24T15:27:43;15.70;99.90
58517;DHT22;44308;50.810;0.284;2023-04-24T15:30:11;15.90;99.90
58517;DHT22;44308;50.810;0.284;2023-04-24T15:32:38;15.60;99.90
58517;DHT22;44308;50.810;0.284;2023-04-24T15:35:05;15.30;99.90
58517;DHT22;44308;50.810;0.284;2023-04-24T15:37:31;15.00;99.90
58517;DHT22;44308;50.810;0.284;2023-04-24T15:39:57;14.80;99.90
58517;DHT22;44308;50.810;0.284;2023-04-24T15:42:42;14.70;99.90
58517;DHT22;44308;50.810;0.284;2023-04-24T15:45:09;14.40;99.90
58517;DHT22;44308;50.810;0.284;2023-04-24T15:47:35;14.20;99.90